Flight Briefing for CMB803

Departure Arrival
Norfolk Naval Station (Chambers Field) (KNGU)
Click to view FAA NOTAMS
Guantánamo Bay Naval Air Station (MUGM)
Click to view FAA NOTAMS
Departure Time Arrival Time
N/A N/A
Aircraft Distance
B757-200SF 1025.27nm
Departure METAR Arrival METAR
KNGU 252359Z 07013G21KT 4SM -RA BR FEW047 BKN055 OVC085 11/09 A2994 RMK AO2 SLP138 OCNL LTGICCC DSNT SE T1 SET TSB22TSE27TSB38TSE43 P0013 60016 T01060089 10217 20106 53008 MUGM 252356Z 20003KT 9999 FEW030 FEW120 27/24 A2996 RMK SLP144 T02670244 10300 20267 53010
Suggested Route
SWOPE ECG DIW IDOLS Y323 CARPX AR3 NUCAR Y374 RUMFO ZIN EASTP SOUTP SOUTP2


View recent IFR Routes data
Notes
USTRANSCOM CONTRACT FLIGHT | OVERFLIGHT OF CUBA PROHIBITED, SOUTP & EASTP FIXES MANDATORY

Charts and Procedures

Charts for KNGU
No chart available
Charts for MUGM
No chart available

Windy.com Weather Map